Weather observations for the past three days for
Somerset, Somerset-Pulaski County - J.T. Wilson Field Airport
Metric (Imperial)
Date Time (edt) Wind (kph) Vis. (km) Weather Sky Cond. Temperature (ºC) Relative Humidity Wind Chill (°C) Heat Index (°C) Pressure Precipitation (cm)
Air Dwpt 6 hour altimeter (cm) sea level (mb) 1 hr 3 hr 6 hr
Max. Min.
25 01:15 Calm 16.09 Light Rain FEW039 SCT060 OVC075 19 19 100% 75.92 0.0
25 00:55 Calm 16.09 Overcast BKN075 OVC110 19 19 100% 75.92 0.0
25 00:35 Calm 16.09 Overcast FEW026 SCT085 OVC110 19 19 100% 75.92 0.0
25 00:15 Calm 16.09 Overcast SCT027 BKN034 OVC110 19 19 100% 75.95 0.0
24 23:55 NE 19 16.09 Overcast SCT003 BKN034 OVC110 19 19 100% 75.92 0.0 2.13
24 23:35 W 30 G 46 0.80 Heavy Rain Fog OVC003 21 20 94% 76 0.0
24 23:15 Calm 16.09 Overcast SCT029 BKN035 OVC065 22 22 100% 75.9 0.0
24 22:55 Calm 16.09 Overcast BKN036 BKN042 OVC065 22 22 100% 75.92 0.0
24 22:35 Calm 16.09 Partly Cloudy SCT037 22 22 100% 75.95 0.0
24 22:15 Calm 16.09 Fair CLR 22 22 100% 75.92 0.0
24 21:55 Calm 16.09 Fair CLR 23 22 94% 75.9 0.0
24 21:35 Calm 16.09 Fair CLR 23 22 94% 75.9 0.0
24 21:15 Calm 16.09 Fair CLR 23 22 94% 75.84 0.0
24 20:55 Calm 16.09 Fair CLR 23 22 94% 75.84 0.0
24 20:35 Calm 16.09 Fair CLR 24 22 89% 24 75.79 0.0
24 20:15 Calm 16.09 Fair CLR 25 21 79% 26 75.79 0.0
24 19:55 Calm 16.09 Fair CLR 25 21 79% 26 75.79 0.0
24 19:35 Calm 16.09 Fair CLR 26 21 74% 27 75.79 0.0
24 19:15 Calm 16.09 Fair CLR 26 21 74% 27 75.79 0.0
24 18:55 Calm 16.09 Fair CLR 26 21 74% 27 75.79 0.0
24 18:35 SW 7 16.09 Fair CLR 26 20 70% 27 75.82 0.0
24 18:15 SW 17 16.09 A Few Clouds FEW031 26 20 70% 27 75.84 0.0
24 17:55 SW 13 16.09 Fair CLR 27 20 66% 29 75.84 0.0
24 17:35 W 19 16.09 Fair CLR 26 20 70% 27 75.84 0.0
24 17:15 W 20 16.09 A Few Clouds FEW032 26 20 70% 27 75.87 0.0
24 16:55 SW 9 16.09 Partly Cloudy SCT033 SCT045 27 20 66% 29 75.9 0.0
24 16:35 Vrbl 7 16.09 Mostly Cloudy BKN033 BKN045 27 20 66% 29 75.92 0.0
24 16:15 S 7 16.09 A Few Clouds FEW032 FEW039 27 20 66% 29 75.95 0.0
24 15:55 Vrbl 7 16.09 Partly Cloudy FEW031 SCT042 27 20 66% 29 75.97 0.0
24 15:35 SE 7 16.09 Partly Cloudy FEW032 SCT045 SCT055 27 21 70% 29 76 0.0
24 15:15 S 6 16.09 Mostly Cloudy FEW032 SCT042 BKN050 26 20 70% 27 76.02 0.0
24 14:55 SE 6 16.09 Mostly Cloudy FEW032 BKN043 BKN048 26 19 65% 27 76.05 0.0
24 14:35 Calm 16.09 Partly Cloudy SCT045 26 19 65% 27 76.07 0.0
24 14:15 E 7 16.09 Fair CLR 26 19 65% 27 76.07 0.0
24 13:55 Vrbl 6 16.09 Fair CLR 25 19 69% 26 76.07 0.0
24 13:35 E 7 16.09 Fair CLR 26 19 65% 27 76.07 0.0
24 13:15 Calm 16.09 A Few Clouds FEW027 26 19 65% 27 76.07 0.0
24 12:55 SE 9 16.09 Fair CLR 26 20 70% 27 76.07 0.0
24 12:35 SE 9 16.09 Fair CLR 25 19 69% 26 76.07 0.0
24 12:15 Calm 16.09 Fair CLR 25 19 69% 26 76.12 0.0
24 11:55 Calm 16.09 Fair CLR 24 19 74% 25 76.12 0.0
24 11:35 Vrbl 9 16.09 Partly Cloudy SCT013 23 19 78% 76.15 0.0
24 11:15 Calm 16.09 Partly Cloudy SCT012 22 19 83% 76.12 0.0
24 10:55 Calm 16.09 Partly Cloudy SCT011 21 19 88% 76.1 0.0 0.03
24 10:35 Calm 16.09 Mostly Cloudy BKN009 22 19 83% 76.1 0.0
24 10:15 E 6 16.09 Mostly Cloudy BKN006 21 19 88% 76.07 0.0
24 09:55 SE 7 16.09 Overcast OVC005 20 19 94% 76.07 0.0
24 09:35 Calm 16.09 Overcast OVC004 19 18 94% 76.07 0.0
24 09:15 SE 7 16.09 Overcast OVC003 18 18 100% 76.1 0.0
24 08:55 SE 7 8.05 Fog/Mist OVC002 17 17 100% 76.12 0.0
24 08:35 SE 7 1.61 Unknown Precip Fog/Mist OVC002 17 17 100% 76.15 0.0
24 08:15 Vrbl 6 0.24 Light Rain Fog OVC002 17 17 100% 76.12 0.0
24 07:55 Calm 1.21 Unknown Precip Fog/Mist OVC002 17 17 100% 76.12 0.0
24 07:35 Calm 0.80 Unknown Precip Fog/Mist OVC002 17 17 100% 76.1 0.0
24 07:15 Calm 4.83 Light Rain Fog/Mist OVC003 18 18 100% 76.07 0.0
24 06:55 Calm 11.27 Overcast OVC003 17 17 100% 76.05 0.0
24 06:35 Calm 14.48 Overcast OVC004 18 18 100% 76.02 0.0
24 06:15 Calm 16.09 Overcast OVC004 18 18 100% 76.02 0.0
24 05:55 Calm 16.09 Overcast OVC004 18 18 100% 76.02 0.0
24 05:35 Calm 16.09 Overcast OVC004 18 18 100% 76.02 0.0
24 05:15 Calm 11.27 Overcast OVC004 18 18 100% 76.02 0.0
24 04:55 Calm 16.09 Overcast OVC004 18 18 100% 76.05 0.0
24 04:35 Calm 12.87 Overcast OVC005 18 18 100% 76.05 0.0
24 04:15 Calm 12.87 Overcast BKN003 OVC006 18 18 100% 76.05 0.0
24 03:55 Calm 8.05 Fog/Mist OVC003 18 18 100% 76.02 0.0
24 03:35 Calm 4.83 Fog/Mist OVC002 18 18 100% 76.05 0.0
24 03:15 Calm 3.22 Unknown Precip Fog/Mist OVC003 18 18 100% 76.05 0.0
24 02:55 Calm 12.87 Overcast OVC003 18 18 100% 76.05 0.0
24 02:35 Calm 14.48 Overcast OVC003 18 18 100% 76.02 0.0
24 02:15 Calm 16.09 Overcast OVC003 18 18 100% 76.05 0.0
24 01:55 Calm 16.09 Overcast OVC002 18 18 100% 76.07 0.0
24 01:35 Calm 16.09 Overcast OVC002 18 18 100% 76.07 0.0
24 01:15 S 6 14.48 Overcast OVC003 18 18 100% 76.05 0.0
24 00:55 Calm 9.66 Fog/Mist BKN003 18 18 100% 76.05 0.0
24 00:35 Calm 6.44 Fog/Mist CLR 17 17 100% 76.05 0.0
24 00:15 Calm 8.05 Fog/Mist FEW120 18 18 100% 76.05 0.0
23 23:55 Calm 16.09 Fair CLR 18 18 100% 76.05 0.0
23 23:35 Calm 16.09 Partly Cloudy SCT080 18 18 100% 76.02 0.0
23 23:15 Calm 16.09 Overcast FEW044 SCT065 OVC085 18 18 100% 76.05 0.0
23 22:55 Calm 16.09 Mostly Cloudy FEW038 SCT065 BKN075 19 19 100% 76.05 0.0
23 22:35 Calm 16.09 Overcast FEW060 BKN095 OVC110 19 19 100% 76.07 0.0
23 22:15 Calm 16.09 Overcast SCT085 OVC110 19 19 100% 76.07 0.0
23 21:55 Calm 16.09 Overcast FEW070 BKN080 OVC120 19 19 100% 76.05 0.0 0.03
23 21:35 Calm 16.09 Light Rain FEW055 SCT070 OVC080 19 19 100% 76.07 0.0
23 21:15 S 7 11.27 Light Rain SCT050 BKN065 OVC075 19 19 100% 76.07 0.0
23 20:55 Calm 16.09 Overcast FEW028 BKN070 OVC075 19 19 100% 76.07 0.0 0.13
23 20:35 Vrbl 6 8.05 Light Rain Fog/Mist FEW009 SCT014 OVC070 19 19 100% 76.1 0.0
23 20:15 W 7 G 19 6.44 Rain Fog/Mist BKN012 BKN018 OVC023 20 19 94% 76.12 0.0
23 19:55 NW 9 9.66 Light Rain Fog/Mist BKN012 OVC021 20 19 94% 76.1 0.0 0.33
23 19:35 Calm 6.44 Light Rain Fog/Mist BKN011 20 20 100% 76.05 0.0
23 19:15 NW 17 G 37 2.82 Rain Fog/Mist SCT011 BKN022 BKN037 21 20 94% 76.07 0.0
23 18:55 W 13 8.05 Light Rain Fog/Mist FEW024 SCT039 BKN045 22 22 100% 76.05 0.0 0.08
23 18:35 Calm 12.87 Light Rain FEW048 FEW055 BKN110 23 21 89% 76 0.0
23 18:15 Calm 16.09 Mostly Cloudy BKN110 24 21 83% 24 75.97 0.0
23 17:55 Calm 16.09 Partly Cloudy SCT120 23 21 89% 75.95 0.0
23 17:35 Vrbl 6 16.09 Fair CLR 24 21 83% 24 75.97 0.0
23 17:15 S 7 16.09 Light Rain CLR 24 21 83% 24 75.97 0.0
23 16:55 S 9 16.09 A Few Clouds FEW060 25 20 74% 26 76 0.0
23 16:35 S 13 16.09 Fair CLR 25 20 74% 26 76.02 0.0
23 16:15 Vrbl 7 G 19 16.09 Fair CLR 26 20 70% 27 76.02 0.0
23 15:55 Vrbl 9 G 20 16.09 Fair CLR 27 19 62% 28 76.05 0.0
23 15:35 Vrbl 11 G 28 16.09 Fair CLR 27 19 62% 28 76.05 0.0
23 15:15 S 20 16.09 Fair CLR 26 19 65% 27 76.07 0.0
23 14:55 S 19 G 28 16.09 Fair CLR 26 20 70% 27 76.07 0.0
23 14:35 S 15 16.09 Fair CLR 25 20 74% 26 76.1 0.0
23 14:15 S 17 G 26 16.09 Fair CLR 25 20 74% 26 76.1 0.0
23 13:55 Vrbl 11 16.09 A Few Clouds FEW017 25 20 74% 26 76.12 0.0
23 13:35 E 13 16.09 A Few Clouds FEW015 24 20 78% 24 76.07 0.0
23 13:15 Vrbl 7 16.09 Fair CLR 23 19 78% 76.12 0.0
23 12:55 Calm 16.09 A Few Clouds FEW010 22 19 83% 76.12 0.0
23 12:35 SE 15 G 28 16.09 Partly Cloudy SCT005 SCT010 20 19 94% 76.12 0.0
23 11:55 S 9 16.09 Partly Cloudy SCT007 SCT011 SCT110 19 19 100% 76.25 0.0 0.2
23 11:35 S 9 14.48 Light Rain SCT004 SCT110 19 19 100% 76.28 0.0
23 11:15 Vrbl 9 G 28 9.66 Light Rain Fog/Mist SCT005 SCT047 BKN110 18 18 100% 76.2 0.0
23 10:55 Calm 3.22 Heavy Rain Fog/Mist BKN006 BKN012 OVC047 19 19 100% 76.3 0.0 0.1
23 10:35 Calm 16.09 Overcast FEW006 BKN012 OVC065 19 19 100% 76.28 0.0
23 10:15 Calm 16.09 Overcast BKN070 OVC080 18 18 100% 76.23 0.0
23 09:55 Calm 14.48 Light Rain FEW060 BKN080 18 18 100% 76.2 0.0 0.13
23 09:35 Calm 14.48 Light Rain FEW003 SCT060 BKN080 18 18 100% 76.2 0.0
23 09:15 N 9 9.66 Light Rain Fog/Mist FEW065 FEW075 SCT085 18 18 100% 76.2 0.0
23 08:55 SE 11 4.02 Light Rain Fog/Mist CLR 17 17 100% 76.17 0.0 0.3
23 08:35 Calm 4.83 Rain Fog/Mist FEW065 FEW075 FEW095 18 18 100% 76.23 0.0
23 08:15 Calm 4.83 Light Rain Fog/Mist FEW007 FEW075 SCT090 18 18 100% 76.23 0.0
23 07:55 Calm 4.83 Light Rain Fog/Mist SCT003 SCT008 18 18 100% 76.25 0.0 1.4
23 07:35 NW 17 G 30 0.40 Heavy Rain Fog OVC003 17 17 100% 76.23 0.0
23 07:15 Calm 8.05 Light Rain Fog/Mist OVC045 17 17 100% 76.17 0.0
23 06:55 Calm 16.09 Overcast BKN044 BKN055 OVC065 17 17 100% 76.15 0.0
23 06:35 Calm 16.09 Overcast BKN045 OVC055 16 16 100% 76.15 0.0
23 06:15 Calm 16.09 Mostly Cloudy BKN044 BKN050 BKN055 16 16 100% 76.12 0.0
23 05:55 Calm 16.09 Overcast BKN046 OVC055 16 16 100% 76.1 0.0 0.03
23 05:35 Calm 14.48 Mostly Cloudy BKN046 16 16 100% 76.1 0.0
23 05:15 E 6 14.48 Mostly Cloudy BKN046 16 16 100% 76.1 0.0
23 04:55 Calm 11.27 Overcast BKN048 OVC055 16 16 100% 76.15 0.0
23 04:35 Calm 9.66 Fog/Mist BKN050 OVC055 16 16 100% 76.15 0.0
23 04:15 Calm 8.05 Fog/Mist BKN055 16 16 100% 76.15 0.0
23 03:55 Calm 6.44 Fog/Mist FEW050 16 16 100% 76.12 0.0
23 03:35 Calm 11.27 Partly Cloudy SCT055 16 16 100% 76.12 0.0
23 03:15 Calm 16.09 Partly Cloudy SCT050 16 16 100% 76.12 0.0
23 02:55 Calm 11.27 Partly Cloudy SCT048 SCT055 SCT100 16 16 100% 76.15 0.0
23 02:35 Calm 16.09 Mostly Cloudy BKN048 BKN055 BKN065 16 16 100% 76.17 0.0
23 02:15 Calm 3.22 Fog/Mist BKN046 OVC055 16 16 100% 76.17 0.0
23 01:55 Calm 16.09 Overcast FEW003 BKN047 OVC080 16 16 100% 76.2 0.0
23 01:35 Calm 4.83 Fog/Mist BKN002 BKN044 OVC055 17 17 100% 76.2 0.0
23 01:15 Calm 1.61 Fog/Mist OVC002 16 16 100% 76.17 0.0
23 00:55 Calm 8.05 Fog/Mist OVC002 17 17 100% 76.17 0.0
23 00:35 Calm 12.87 Partly Cloudy SCT002 17 17 100% 76.15 0.0
23 00:15 Calm 16.09 Fair CLR 17 17 100% 76.15 0.0
22 23:55 Calm 16.09 Fair CLR 17 17 100% 76.15 0.0
22 23:35 Calm 16.09 Fair CLR 17 17 100% 76.12 0.0
22 23:15 Calm 16.09 Fair CLR 17 17 100% 76.15 0.0
22 22:55 Calm 16.09 A Few Clouds FEW006 FEW047 FEW070 17 17 100% 76.2 0.0 0.08
22 22:35 Vrbl 6 14.48 Light Rain BKN006 BKN047 BKN070 17 17 100% 76.23 0.0
22 22:15 Vrbl 7 12.87 Light Rain SCT006 BKN070 BKN100 18 18 100% 76.3 0.0
22 21:55 Calm 4.83 Light Rain Fog/Mist SCT006 SCT049 18 18 100% 76.33 0.0 0.43
22 21:35 S 11 G 24 6.44 Light Rain Fog/Mist BKN006 BKN031 BKN041 18 18 100% 76.33 0.0
22 21:15 S 15 G 33 4.02 Rain Fog/Mist BKN007 BKN030 BKN055 18 18 100% 76.35 0.0
22 20:55 S 11 G 26 6.44 Rain Fog/Mist FEW006 BKN055 BKN065 18 18 100% 76.33 0.0 0.36
22 20:35 S 13 4.83 Rain Fog/Mist FEW004 SCT075 BKN110 18 18 100% 76.33 0.0
22 20:15 S 7 4.83 Rain Fog/Mist FEW034 FEW042 SCT055 18 18 100% 76.28 0.0
22 19:55 SW 9 4.83 Rain Fog/Mist FEW003 SCT038 BKN060 18 18 100% 76.33 0.0 0.48
22 19:35 SW 9 G 19 2.01 Rain Fog/Mist SCT004 BKN027 OVC070 19 19 100% 76.28 0.0
22 19:15 SW 7 G 19 4.83 Light Rain Fog/Mist FEW006 SCT046 BKN075 19 19 100% 76.17 0.0
22 18:55 Vrbl 11 G 20 3.22 Rain Fog/Mist FEW045 FEW060 SCT075 20 20 100% 76.15 0.0 0.36
22 18:35 Vrbl 9 G 19 3.22 Rain Fog/Mist FEW039 SCT055 SCT075 20 20 100% 76.07 0.0
22 18:15 Vrbl 7 G 20 4.02 Light Rain Fog/Mist FEW060 FEW070 SCT100 20 20 100% 76.1 0.0
22 17:55 Calm 4.83 Light Rain Fog/Mist FEW055 SCT070 BKN110 20 20 100% 76.12 0.0 0.18
22 17:35 NW 7 6.44 Light Rain Fog/Mist FEW024 SCT047 BKN060 20 20 100% 76.17 0.0
22 17:15 NW 13 G 24 14.48 Light Rain BKN025 BKN047 OVC090 20 20 100% 76.15 0.0
22 16:55 NW 13 12.87 Light Rain FEW006 SCT030 BKN055 20 20 100% 76.1 0.0 0.05
22 16:35 Vrbl 6 12.87 Light Rain BKN005 BKN034 BKN050 20 20 100% 76.02 0.0
22 16:15 NE 13 9.66 Light Rain Fog/Mist SCT005 SCT045 BKN050 20 20 100% 76.05 0.0
22 15:55 Calm 16.09 Mostly Cloudy BKN050 BKN060 20 20 100% 76.07 0.0 1.12
22 15:35 Calm 1.61 Light Rain Fog/Mist SCT003 SCT012 BKN050 20 20 100% 76.07 0.0
22 15:15 W 17 1.21 Heavy Rain Fog/Mist OVC003 20 20 100% 76.12 0.0
22 14:55 W 11 G 37 0.40 Heavy Rain Fog OVC003 20 20 100% 76.15 0.0 1.04
22 14:35 N 13 G 22 8.05 Light Rain Haze FEW003 FEW006 OVC043 23 21 89% 76.1 0.0
22 14:15 Calm 16.09 Overcast OVC043 24 20 78% 24 76.1 0.0
22 13:55 Calm 16.09 Overcast BKN042 BKN047 OVC055 24 19 74% 25 76.1 0.0
22 13:35 Calm 16.09 Overcast BKN041 BKN050 OVC060 25 19 69% 26 76.1 0.0
22 13:15 Vrbl 6 16.09 Overcast OVC041 25 19 69% 26 76.1 0.0
22 12:55 SW 11 G 20 16.09 Mostly Cloudy BKN042 BKN048 25 18 65% 26 76.1 0.0
22 12:35 Vrbl 7 G 20 16.09 A Few Clouds FEW045 25 18 65% 26 76.1 0.0
22 12:15 SW 11 G 20 16.09 Mostly Cloudy BKN045 25 18 65% 26 76.12 0.0
22 11:55 SW 13 G 31 16.09 A Few Clouds FEW048 26 17 58% 27 76.15 0.0
22 11:35 SW 22 16.09 Partly Cloudy SCT049 27 17 54% 28 76.12 0.0
22 11:15 SW 19 G 33 16.09 Fair CLR 27 18 58% 28 76.15 0.0
22 10:55 SW 17 G 28 16.09 Fair CLR 27 18 58% 28 76.12 0.0
22 10:35 S 13 G 28 16.09 Fair CLR 26 19 65% 27 76.15 0.0
22 10:15 S 17 G 28 16.09 Fair CLR 25 19 69% 26 76.15 0.0
22 09:55 Vrbl 9 G 20 16.09 Fair CLR 24 19 74% 25 76.15 0.0
22 09:35 Vrbl 11 G 20 16.09 Fair CLR 23 18 74% 76.17 0.0
22 09:15 S 13 16.09 Fair CLR 23 18 74% 76.15 0.0
22 08:55 S 13 16.09 Fair CLR 22 18 78% 76.15 0.0
22 08:35 Vrbl 9 16.09 Fair CLR 21 18 83% 76.15 0.0
22 08:15 Vrbl 7 16.09 Fair CLR 21 18 83% 76.15 0.0
22 07:55 S 13 16.09 Fair CLR 21 18 83% 76.15 0.0
22 07:35 Vrbl 7 16.09 Fair CLR 21 18 83% 76.15 0.0
22 07:15 S 9 16.09 Fair CLR 20 18 88% 76.12 0.0
22 06:55 S 6 16.09 Fair CLR 20 18 88% 76.12 0.0
22 06:35 S 6 16.09 Fair CLR 20 18 88% 76.1 0.0
22 06:15 S 6 16.09 Fair CLR 21 18 83% 76.07 0.0
22 05:55 S 6 16.09 Fair CLR 21 18 83% 76.07 0.0
22 05:35 S 7 16.09 Fair CLR 21 18 83% 76.07 0.0
22 05:15 S 6 16.09 Fair CLR 20 18 88% 76.07 0.0
22 04:35 Calm 16.09 Fair CLR 21 18 83% 76.05 0.0
22 04:15 S 7 16.09 Fair CLR 21 18 83% 76.05 0.0
22 03:55 S 6 16.09 Fair CLR 21 18 83% 76.05 0.0
22 03:35 S 7 16.09 Fair CLR 21 18 83% 76.05 0.0
22 03:15 S 7 16.09 Fair CLR 21 18 83% 76.05 0.0
22 02:55 S 6 16.09 Fair CLR 22 19 83% 76.07 0.0
22 02:35 Calm 16.09 Fair CLR 22 19 83% 76.1 0.0
22 02:15 S 6 16.09 Fair CLR 22 18 78% 76.1 0.0
22 01:55 S 7 16.09 Fair CLR 23 18 74% 76.12 0.0
22 01:35 Calm 16.09 Fair CLR 22 19 83% 76.07 0.0
Date Time (edt) Wind (kph) Vis. (km) Weather Sky Cond. Air Dwpt Max. Min. Relative Humidity Wind Chill (°C) Heat Index (°C) altimeter (cm) sea level (mb) 1 hr 3 hr 6 hr
6 hour
Temperature (ºC) Pressure Precipitation (cm)